Time;durP1;ratioP1;P1;durP2;ratioP2;P2;SDS_P1;SDS_P2;PMS_P1;PMS_P2;Temp;Humidity;BMP_temperature;BMP_pressure;BME280_temperature;BME280_humidity;BME280_pressure;Samples;Min_cycle;Max_cycle;Signal;HPM_P1;HPM_P2
2020/12/11 00:01:03;;;;;;;77.65;26.20;;;;;;;;;;5065441;28;20506;-64
2020/12/11 00:03:29;;;;;;;77.93;26.40;;;;;;;;;;5062790;28;20048;-64
2020/12/11 00:05:56;;;;;;;76.63;26.40;;;;;;;;;;5063418;28;20687;-64
2020/12/11 00:08:22;;;;;;;78.70;25.35;;;;;;;;;;5061505;28;20036;-64
2020/12/11 00:10:48;;;;;;;87.72;27.50;;;;;;;;;;5064180;28;20465;-64
2020/12/11 00:13:14;;;;;;;74.28;26.17;;;;;;;;;;5062421;28;20040;-64
2020/12/11 00:15:40;;;;;;;84.72;27.80;;;;;;;;;;5064487;28;20024;-64
2020/12/11 00:18:06;;;;;;;74.97;25.30;;;;;;;;;;5066706;28;20578;-64
2020/12/11 00:20:32;;;;;;;85.63;27.67;;;;;;;;;;5063231;28;20028;-64
2020/12/11 00:22:58;;;;;;;70.53;24.88;;;;;;;;;;5064968;28;20036;-64
2020/12/11 00:25:24;;;;;;;76.50;24.75;;;;;;;;;;5063673;28;20028;-64
2020/12/11 00:27:50;;;;;;;76.35;25.52;;;;;;;;;;5064258;28;20128;-64
2020/12/11 00:30:16;;;;;;;77.30;24.65;;;;;;;;;;5064810;28;20028;-64
2020/12/11 00:32:42;;;;;;;86.40;26.17;;;;;;;;;;5061586;28;20032;-64
2020/12/11 00:35:08;;;;;;;86.10;27.30;;;;;;;;;;5063769;28;21208;-64
2020/12/11 00:37:35;;;;;;;76.45;25.45;;;;;;;;;;5060067;28;20064;-64
2020/12/11 00:40:01;;;;;;;79.45;25.80;;;;;;;;;;5062549;28;20037;-64
2020/12/11 00:42:27;;;;;;;77.18;26.20;;;;;;;;;;5063753;28;20054;-64
2020/12/11 00:44:52;;;;;;;86.22;27.15;;;;;;;;;;5066604;28;20020;-64
2020/12/11 00:47:19;;;;;;;84.82;26.90;;;;;;;;;;5064908;28;20079;-64
2020/12/11 00:49:45;;;;;;;71.03;24.40;;;;;;;;;;5066358;28;20025;-64
2020/12/11 00:52:11;;;;;;;71.55;23.77;;;;;;;;;;5062990;28;20036;-64
2020/12/11 00:54:37;;;;;;;63.40;23.33;;;;;;;;;;5063133;28;20032;-64
2020/12/11 00:57:03;;;;;;;67.00;22.65;;;;;;;;;;5063477;28;20036;-64
2020/12/11 00:59:29;;;;;;;67.70;24.27;;;;;;;;;;5068719;28;20035;-64
2020/12/11 01:01:55;;;;;;;73.65;24.98;;;;;;;;;;5063164;28;20537;-64
2020/12/11 01:04:21;;;;;;;65.85;24.25;;;;;;;;;;5060538;28;20056;-64
2020/12/11 01:06:47;;;;;;;77.95;23.80;;;;;;;;;;5060750;28;20044;-64
2020/12/11 01:09:13;;;;;;;76.65;24.48;;;;;;;;;;5063858;28;20036;-64
2020/12/11 01:11:39;;;;;;;71.88;26.33;;;;;;;;;;5064235;28;20040;-64
2020/12/11 01:14:05;;;;;;;75.97;26.13;;;;;;;;;;5063404;28;20070;-64
2020/12/11 01:16:30;;;;;;;83.68;25.88;;;;;;;;;;5063025;28;20082;-64
2020/12/11 01:18:57;;;;;;;72.15;24.65;;;;;;;;;;5060983;28;20055;-64
2020/12/11 01:21:23;;;;;;;73.32;25.23;;;;;;;;;;5060258;28;20369;-64
2020/12/11 01:23:49;;;;;;;64.65;23.27;;;;;;;;;;5064412;28;20050;-64
2020/12/11 01:26:15;;;;;;;72.18;25.38;;;;;;;;;;5058424;28;20025;-64
2020/12/11 01:28:40;;;;;;;64.97;23.35;;;;;;;;;;5063463;28;20054;-64
2020/12/11 01:31:06;;;;;;;73.32;24.88;;;;;;;;;;5068293;28;20040;-64
2020/12/11 01:33:32;;;;;;;64.82;24.08;;;;;;;;;;5064562;28;20033;-64
2020/12/11 01:35:58;;;;;;;74.60;24.38;;;;;;;;;;5062580;28;20064;-64
2020/12/11 01:38:24;;;;;;;68.68;22.95;;;;;;;;;;5063251;28;20403;-64
2020/12/11 01:40:50;;;;;;;74.57;26.30;;;;;;;;;;5063635;28;20365;-64
2020/12/11 01:43:19;;;;;;;67.05;24.85;;;;;;;;;;5062030;28;20039;-64
2020/12/11 01:45:45;;;;;;;62.50;23.63;;;;;;;;;;5059564;28;20029;-64
2020/12/11 01:48:11;;;;;;;71.40;24.90;;;;;;;;;;5063860;28;20453;-64
2020/12/11 01:50:37;;;;;;;69.22;23.25;;;;;;;;;;5064252;28;20795;-64
2020/12/11 01:53:04;;;;;;;64.55;24.25;;;;;;;;;;5064481;28;20024;-64
2020/12/11 01:55:30;;;;;;;72.22;25.42;;;;;;;;;;5056449;28;20025;-64
2020/12/11 01:58:01;;;;;;;73.40;24.73;;;;;;;;;;5060712;28;20031;-64
2020/12/11 02:00:27;;;;;;;64.22;24.85;;;;;;;;;;5064857;28;20025;-64
2020/12/11 02:03:04;;;;;;;67.97;23.35;;;;;;;;;;5065204;28;20051;-64
2020/12/11 02:05:30;;;;;;;69.95;25.33;;;;;;;;;;5067142;28;20029;-64
2020/12/11 02:07:56;;;;;;;70.07;25.85;;;;;;;;;;5063539;28;20478;-64
2020/12/11 02:10:22;;;;;;;74.70;26.15;;;;;;;;;;5064757;28;20036;-64
2020/12/11 02:12:48;;;;;;;73.68;25.80;;;;;;;;;;5068613;28;20098;-64
2020/12/11 02:15:14;;;;;;;74.07;26.60;;;;;;;;;;5065165;28;20020;-64
2020/12/11 02:17:40;;;;;;;76.88;28.30;;;;;;;;;;5069564;28;20031;-64
2020/12/11 02:20:06;;;;;;;72.65;26.92;;;;;;;;;;5063896;28;20055;-64
2020/12/11 02:22:32;;;;;;;67.57;25.10;;;;;;;;;;5067476;28;20066;-64
2020/12/11 02:24:58;;;;;;;73.38;26.02;;;;;;;;;;5067445;28;20675;-64
2020/12/11 02:27:24;;;;;;;68.97;24.38;;;;;;;;;;5063248;28;20408;-64
2020/12/11 02:29:50;;;;;;;72.22;25.70;;;;;;;;;;5063160;28;20043;-64
2020/12/11 02:32:16;;;;;;;78.72;25.88;;;;;;;;;;5067030;28;20090;-64
2020/12/11 02:34:42;;;;;;;69.55;26.40;;;;;;;;;;5067578;28;20020;-64
2020/12/11 02:37:08;;;;;;;74.15;28.27;;;;;;;;;;5061948;28;20074;-64
2020/12/11 02:39:34;;;;;;;70.28;24.83;;;;;;;;;;5069015;28;20123;-64
2020/12/11 02:42:00;;;;;;;78.65;27.52;;;;;;;;;;5060046;28;20500;-64
2020/12/11 02:44:26;;;;;;;71.53;26.80;;;;;;;;;;5072035;28;20093;-64
2020/12/11 02:46:52;;;;;;;76.32;27.77;;;;;;;;;;5063309;28;20036;-64
2020/12/11 02:49:19;;;;;;;75.78;25.10;;;;;;;;;;5066697;28;20032;-64
2020/12/11 02:51:45;;;;;;;79.35;26.15;;;;;;;;;;5067495;28;20028;-64
2020/12/11 02:54:10;;;;;;;72.57;26.25;;;;;;;;;;5067203;28;20122;-64
2020/12/11 02:56:36;;;;;;;91.40;28.27;;;;;;;;;;5063507;28;20532;-64
2020/12/11 02:59:03;;;;;;;78.60;26.13;;;;;;;;;;5066196;28;20027;-64
2020/12/11 03:01:29;;;;;;;83.43;28.25;;;;;;;;;;5065738;28;20029;-64
2020/12/11 03:03:55;;;;;;;80.05;26.48;;;;;;;;;;5067182;28;20498;-64
2020/12/11 03:06:27;;;;;;;82.63;26.60;;;;;;;;;;5067292;28;20031;-64
2020/12/11 03:08:53;;;;;;;85.63;28.00;;;;;;;;;;5064620;28;20036;-64
2020/12/11 03:11:19;;;;;;;95.60;28.23;;;;;;;;;;5066461;28;20071;-64
2020/12/11 03:13:46;;;;;;;92.13;29.90;;;;;;;;;;5066682;28;20033;-64
2020/12/11 03:16:12;;;;;;;88.30;29.92;;;;;;;;;;5063696;28;20404;-64
2020/12/11 03:18:38;;;;;;;89.10;30.10;;;;;;;;;;5065157;28;20373;-64
2020/12/11 03:21:04;;;;;;;90.82;28.65;;;;;;;;;;5067096;28;20028;-64
2020/12/11 03:23:30;;;;;;;82.65;28.30;;;;;;;;;;5064222;28;20056;-64
2020/12/11 03:25:56;;;;;;;64.00;24.08;;;;;;;;;;5066118;28;20032;-64
2020/12/11 03:28:22;;;;;;;76.15;24.70;;;;;;;;;;5067176;28;20376;-64
2020/12/11 03:30:48;;;;;;;67.68;25.27;;;;;;;;;;5065661;28;20033;-64
2020/12/11 03:33:14;;;;;;;65.20;23.42;;;;;;;;;;5062570;28;20036;-64
2020/12/11 03:35:40;;;;;;;67.03;23.88;;;;;;;;;;5067067;28;20657;-64
2020/12/11 03:38:06;;;;;;;76.57;26.98;;;;;;;;;;5066347;28;20387;-64
2020/12/11 03:40:32;;;;;;;73.28;25.33;;;;;;;;;;5063153;28;20063;-64
2020/12/11 03:42:58;;;;;;;83.28;26.48;;;;;;;;;;5066590;28;20028;-64
2020/12/11 03:45:23;;;;;;;77.72;25.48;;;;;;;;;;5064998;28;20036;-64
2020/12/11 03:47:49;;;;;;;74.47;27.27;;;;;;;;;;5065985;28;20028;-64
2020/12/11 03:50:15;;;;;;;76.80;27.75;;;;;;;;;;5065654;28;20040;-64
2020/12/11 03:52:41;;;;;;;69.70;25.35;;;;;;;;;;5063430;28;20028;-64
2020/12/11 03:55:07;;;;;;;84.68;25.15;;;;;;;;;;5067457;28;20016;-64
2020/12/11 03:57:33;;;;;;;93.55;27.65;;;;;;;;;;5064960;28;20029;-64
2020/12/11 03:59:59;;;;;;;78.28;28.10;;;;;;;;;;5062477;28;20021;-64
2020/12/11 04:02:25;;;;;;;82.95;27.70;;;;;;;;;;5063712;28;20039;-64
2020/12/11 04:04:51;;;;;;;77.90;24.45;;;;;;;;;;5062892;28;20025;-64
2020/12/11 04:07:17;;;;;;;73.32;27.42;;;;;;;;;;5064928;28;20167;-64
2020/12/11 04:09:43;;;;;;;76.80;25.70;;;;;;;;;;5062578;28;20672;-64
2020/12/11 04:12:09;;;;;;;83.05;26.33;;;;;;;;;;5067656;28;20055;-64
2020/12/11 04:14:35;;;;;;;73.40;25.23;;;;;;;;;;5064660;28;20383;-63
2020/12/11 04:17:01;;;;;;;59.20;23.17;;;;;;;;;;5063255;28;20033;-63
2020/12/11 04:19:28;;;;;;;66.35;24.02;;;;;;;;;;5066666;28;20039;-64
2020/12/11 04:21:55;;;;;;;62.88;22.13;;;;;;;;;;5066069;28;20024;-63
2020/12/11 04:24:22;;;;;;;67.78;24.30;;;;;;;;;;5065863;28;20021;-63
2020/12/11 04:26:48;;;;;;;73.28;25.95;;;;;;;;;;5063901;28;20028;-64
2020/12/11 04:29:14;;;;;;;69.93;24.67;;;;;;;;;;5061236;28;20465;-63
2020/12/11 04:31:40;;;;;;;69.90;24.60;;;;;;;;;;5062354;28;20037;-64
2020/12/11 04:34:06;;;;;;;70.07;26.15;;;;;;;;;;5070643;28;20747;-64
2020/12/11 04:36:32;;;;;;;79.88;26.60;;;;;;;;;;5064252;28;20028;-63
2020/12/11 04:38:58;;;;;;;72.18;25.90;;;;;;;;;;5062866;28;20052;-63
2020/12/11 04:41:27;;;;;;;74.20;25.85;;;;;;;;;;5070099;28;20459;-63
2020/12/11 04:43:55;;;;;;;76.57;26.75;;;;;;;;;;5064633;28;20028;-63
2020/12/11 04:46:25;;;;;;;72.93;26.27;;;;;;;;;;5065498;28;20047;-63
2020/12/11 04:48:51;;;;;;;71.82;25.02;;;;;;;;;;5063249;28;20028;-63
2020/12/11 04:51:18;;;;;;;68.95;25.10;;;;;;;;;;5060780;28;20051;-63
2020/12/11 04:53:45;;;;;;;75.57;25.50;;;;;;;;;;5062658;28;20112;-64
2020/12/11 04:56:13;;;;;;;77.60;24.00;;;;;;;;;;5064889;28;20997;-64
2020/12/11 04:58:43;;;;;;;78.13;25.83;;;;;;;;;;5062409;28;20034;-63
2020/12/11 05:01:13;;;;;;;75.18;26.15;;;;;;;;;;5063429;28;20064;-64
2020/12/11 05:03:39;;;;;;;81.93;27.60;;;;;;;;;;5057599;28;20086;-64
2020/12/11 05:06:05;;;;;;;85.07;26.95;;;;;;;;;;5064966;28;20387;-64
2020/12/11 05:08:30;;;;;;;80.15;26.13;;;;;;;;;;5065833;28;20438;-63
2020/12/11 05:10:56;;;;;;;75.50;26.38;;;;;;;;;;5062377;28;20486;-64
2020/12/11 05:13:23;;;;;;;78.30;27.17;;;;;;;;;;5063228;28;20039;-63
2020/12/11 05:16:08;;;;;;;105.22;37.15;;;;;;;;;;5063685;28;20333;-64
2020/12/11 05:18:35;;;;;;;131.85;53.85;;;;;;;;;;5070135;28;20142;-64
2020/12/11 05:21:17;;;;;;;91.93;33.90;;;;;;;;;;5056937;28;20146;-63
2020/12/11 05:24:03;;;;;;;108.70;44.55;;;;;;;;;;5066559;28;20024;-63
2020/12/11 05:26:29;;;;;;;93.68;30.58;;;;;;;;;;5060769;28;20447;-63
2020/12/11 05:28:56;;;;;;;93.35;30.55;;;;;;;;;;5077972;28;20032;-64
2020/12/11 05:31:22;;;;;;;82.30;28.23;;;;;;;;;;5056013;28;20040;-64
2020/12/11 05:34:04;;;;;;;90.95;32.00;;;;;;;;;;5064085;28;20029;-63
2020/12/11 05:36:47;;;;;;;92.00;29.98;;;;;;;;;;5073390;28;20056;-63
2020/12/11 05:39:14;;;;;;;93.32;29.80;;;;;;;;;;5066015;28;20653;-63
2020/12/11 05:41:40;;;;;;;97.60;28.98;;;;;;;;;;5071360;28;20028;-64
2020/12/11 05:44:24;;;;;;;99.20;35.05;;;;;;;;;;5068398;28;20037;-63
2020/12/11 05:46:50;;;;;;;78.97;28.23;;;;;;;;;;5067114;28;20426;-63
2020/12/11 05:49:23;;;;;;;86.10;27.00;;;;;;;;;;5083289;28;20020;-64
2020/12/11 05:51:55;;;;;;;80.93;29.27;;;;;;;;;;5068464;28;20031;-63
2020/12/11 05:54:22;;;;;;;87.90;28.33;;;;;;;;;;5069362;28;20038;-63
2020/12/11 05:56:49;;;;;;;81.05;28.92;;;;;;;;;;5070928;28;20463;-64
2020/12/11 05:59:15;;;;;;;85.60;29.27;;;;;;;;;;5072484;28;20028;-63
2020/12/11 06:01:41;;;;;;;88.75;29.08;;;;;;;;;;5076190;28;20035;-63
2020/12/11 06:04:07;;;;;;;81.13;27.20;;;;;;;;;;5083262;28;20055;-63
2020/12/11 06:06:35;;;;;;;78.60;24.95;;;;;;;;;;5082145;28;20032;-63
2020/12/11 06:09:02;;;;;;;75.70;30.08;;;;;;;;;;5067283;28;20025;-63
2020/12/11 06:11:35;;;;;;;83.18;29.75;;;;;;;;;;5071389;28;20020;-63
2020/12/11 06:14:03;;;;;;;84.00;26.98;;;;;;;;;;5074775;28;20036;-63
2020/12/11 06:16:31;;;;;;;79.82;26.52;;;;;;;;;;5085608;28;20368;-63
2020/12/11 06:19:01;;;;;;;84.05;26.73;;;;;;;;;;5077297;28;20127;-63
2020/12/11 06:21:27;;;;;;;83.60;29.88;;;;;;;;;;5075594;28;20062;-64
2020/12/11 06:23:53;;;;;;;85.55;27.17;;;;;;;;;;5065066;28;20043;-63
2020/12/11 06:26:19;;;;;;;88.15;28.67;;;;;;;;;;5061919;28;20040;-64
2020/12/11 06:28:48;;;;;;;86.30;26.20;;;;;;;;;;5064721;28;20035;-65
2020/12/11 06:31:14;;;;;;;86.93;26.70;;;;;;;;;;5065495;28;20515;-65
2020/12/11 06:33:47;;;;;;;91.35;27.55;;;;;;;;;;5063655;28;20033;-64
2020/12/11 06:36:14;;;;;;;83.65;27.45;;;;;;;;;;5080770;28;20162;-65
2020/12/11 06:38:56;;;;;;;76.15;27.23;;;;;;;;;;5085854;28;20016;-64
2020/12/11 06:41:28;;;;;;;84.28;27.90;;;;;;;;;;5072993;28;20536;-65
2020/12/11 06:43:55;;;;;;;75.40;28.13;;;;;;;;;;5085284;28;20028;-64
2020/12/11 06:46:23;;;;;;;73.85;25.20;;;;;;;;;;5075473;28;20024;-65
2020/12/11 06:49:07;;;;;;;87.68;27.45;;;;;;;;;;5071312;28;20027;-65
2020/12/11 06:51:34;;;;;;;76.03;27.40;;;;;;;;;;5076623;28;20486;-65
2020/12/11 06:54:00;;;;;;;81.97;26.90;;;;;;;;;;5089095;28;20111;-65
2020/12/11 06:56:43;;;;;;;77.25;27.08;;;;;;;;;;5089251;28;20032;-65
2020/12/11 06:59:25;;;;;;;74.05;25.90;;;;;;;;;;5088900;28;20027;-65
2020/12/11 07:01:54;;;;;;;79.85;26.65;;;;;;;;;;5089493;28;20081;-64
2020/12/11 07:04:20;;;;;;;72.45;25.52;;;;;;;;;;5082590;28;20052;-65
2020/12/11 07:06:53;;;;;;;69.93;26.98;;;;;;;;;;5068006;28;20375;-65
2020/12/11 07:09:19;;;;;;;77.82;25.10;;;;;;;;;;5068182;28;20071;-65
2020/12/11 07:11:46;;;;;;;65.13;23.35;;;;;;;;;;5068241;28;20376;-65
2020/12/11 07:14:12;;;;;;;84.50;25.30;;;;;;;;;;5076966;28;20020;-65
2020/12/11 07:16:41;;;;;;;71.68;22.85;;;;;;;;;;5074150;28;20039;-65
2020/12/11 07:19:08;;;;;;;76.10;24.98;;;;;;;;;;5077023;28;20337;-65
2020/12/11 07:21:34;;;;;;;78.28;24.33;;;;;;;;;;5080430;28;20641;-64
2020/12/11 07:24:01;;;;;;;67.57;23.67;;;;;;;;;;5076111;28;20028;-64
2020/12/11 07:26:27;;;;;;;72.50;23.88;;;;;;;;;;5069824;28;20047;-65
2020/12/11 07:29:05;;;;;;;68.93;26.33;;;;;;;;;;5088260;28;20060;-65
2020/12/11 07:31:33;;;;;;;69.20;25.08;;;;;;;;;;5081163;28;20620;-64
2020/12/11 07:33:59;;;;;;;66.55;24.13;;;;;;;;;;5059874;28;20029;-64
2020/12/11 07:36:25;;;;;;;63.58;23.35;;;;;;;;;;5065636;28;20167;-65
2020/12/11 07:38:51;;;;;;;68.78;23.92;;;;;;;;;;5088184;28;20024;-65
2020/12/11 07:41:18;;;;;;;60.03;22.90;;;;;;;;;;5077202;28;20028;-65
2020/12/11 07:43:47;;;;;;;67.70;24.13;;;;;;;;;;5088485;28;20031;-65
2020/12/11 07:46:21;;;;;;;64.45;22.67;;;;;;;;;;5088110;28;20055;-65
2020/12/11 07:48:48;;;;;;;61.40;22.95;;;;;;;;;;5087331;28;20020;-65
2020/12/11 07:51:14;;;;;;;68.68;24.15;;;;;;;;;;5069043;28;20032;-65
2020/12/11 07:53:43;;;;;;;69.88;24.65;;;;;;;;;;5080023;28;20425;-65
2020/12/11 07:56:09;;;;;;;78.07;25.90;;;;;;;;;;5075566;28;20028;-64
2020/12/11 07:58:35;;;;;;;66.75;23.38;;;;;;;;;;5061996;28;20041;-65
2020/12/11 08:01:02;;;;;;;72.95;24.17;;;;;;;;;;5078324;28;20082;-65
2020/12/11 08:03:28;;;;;;;65.20;22.52;;;;;;;;;;5064122;28;20044;-65
2020/12/11 08:05:54;;;;;;;71.65;24.30;;;;;;;;;;5080883;28;20383;-64
2020/12/11 08:08:25;;;;;;;65.63;23.38;;;;;;;;;;5087565;28;20035;-65
2020/12/11 08:10:51;;;;;;;60.28;21.80;;;;;;;;;;5079577;28;20032;-65
2020/12/11 08:13:18;;;;;;;67.38;23.58;;;;;;;;;;5075395;28;20035;-65
2020/12/11 08:15:45;;;;;;;69.05;23.45;;;;;;;;;;5078349;28;20030;-65
2020/12/11 08:18:12;;;;;;;62.03;24.15;;;;;;;;;;5059480;28;20086;-65
2020/12/11 08:20:47;;;;;;;65.35;22.65;;;;;;;;;;5062905;28;20124;-65
2020/12/11 08:23:20;;;;;;;68.18;22.85;;;;;;;;;;5062678;28;20029;-65
2020/12/11 08:25:46;;;;;;;67.35;22.30;;;;;;;;;;5067795;28;20050;-65
2020/12/11 08:28:13;;;;;;;63.53;22.83;;;;;;;;;;5084262;28;20033;-65
2020/12/11 08:30:39;;;;;;;61.63;21.92;;;;;;;;;;5070906;28;20041;-65
2020/12/11 08:33:14;;;;;;;57.80;20.58;;;;;;;;;;5071276;28;20028;-65
2020/12/11 08:35:40;;;;;;;57.55;20.23;;;;;;;;;;5075147;28;20059;-65
2020/12/11 08:38:10;;;;;;;53.65;20.45;;;;;;;;;;5061527;28;20428;-65
2020/12/11 08:40:49;;;;;;;54.78;20.35;;;;;;;;;;5065359;28;20028;-65
2020/12/11 08:43:38;;;;;;;51.70;19.45;;;;;;;;;;5087098;28;20031;-65
2020/12/11 08:46:15;;;;;;;54.10;20.15;;;;;;;;;;5087169;28;20024;-64
2020/12/11 08:51:26;;;;;;;52.15;19.73;;;;;;;;;;5080821;28;20032;-65
2020/12/11 08:53:56;;;;;;;49.20;18.92;;;;;;;;;;5084497;28;20032;-65
2020/12/11 08:56:23;;;;;;;56.80;21.02;;;;;;;;;;5063838;28;20021;-65
2020/12/11 08:58:49;;;;;;;49.75;19.92;;;;;;;;;;5083833;28;20459;-65
2020/12/11 09:01:15;;;;;;;49.50;19.30;;;;;;;;;;5086532;28;20036;-65
2020/12/11 09:03:41;;;;;;;51.50;19.90;;;;;;;;;;5086740;28;20056;-65
2020/12/11 09:06:07;;;;;;;61.25;19.92;;;;;;;;;;5079699;28;20103;-65
2020/12/11 09:08:33;;;;;;;57.50;19.90;;;;;;;;;;5085329;28;20036;-65
2020/12/11 09:10:59;;;;;;;48.92;19.95;;;;;;;;;;5080047;28;20042;-65
2020/12/11 09:13:25;;;;;;;56.95;20.70;;;;;;;;;;5072695;28;20028;-65
2020/12/11 09:15:51;;;;;;;51.22;19.23;;;;;;;;;;5057007;28;20074;-65
2020/12/11 09:18:17;;;;;;;54.38;19.88;;;;;;;;;;5059871;28;20040;-65
2020/12/11 09:20:43;;;;;;;56.97;21.08;;;;;;;;;;5074528;28;20027;-65
2020/12/11 09:23:09;;;;;;;50.05;19.20;;;;;;;;;;5080508;28;20029;-65
2020/12/11 09:25:35;;;;;;;55.55;20.98;;;;;;;;;;5082424;28;20024;-65
2020/12/11 09:28:02;;;;;;;54.88;20.38;;;;;;;;;;5069930;28;20094;-65
2020/12/11 09:30:31;;;;;;;51.58;20.52;;;;;;;;;;5058344;28;20053;-65
2020/12/11 09:33:07;;;;;;;58.08;21.67;;;;;;;;;;5066670;28;20398;-65
2020/12/11 09:35:33;;;;;;;59.55;22.60;;;;;;;;;;5072673;28;20027;-65
2020/12/11 09:37:59;;;;;;;59.55;22.38;;;;;;;;;;5078936;28;20012;-65
2020/12/11 09:40:50;;;;;;;61.90;22.58;;;;;;;;;;5062079;28;20040;-65
2020/12/11 09:46:00;;;;;;;65.18;22.30;;;;;;;;;;5064951;28;20029;-65
2020/12/11 09:48:51;;;;;;;59.42;21.08;;;;;;;;;;5060402;28;20031;-64
2020/12/11 09:54:10;;;;;;;51.28;21.45;;;;;;;;;;5066013;28;20039;-64
2020/12/11 09:56:36;;;;;;;60.55;22.90;;;;;;;;;;5062978;28;20025;-64
2020/12/11 09:59:14;;;;;;;57.92;23.48;;;;;;;;;;5064223;28;20031;-64
2020/12/11 10:04:39;;;;;;;58.03;23.08;;;;;;;;;;5044782;28;20139;-64
2020/12/11 10:07:05;;;;;;;61.20;22.52;;;;;;;;;;5066531;28;20031;-65
2020/12/11 10:09:31;;;;;;;57.92;21.20;;;;;;;;;;5067078;28;20024;-64
2020/12/11 10:12:00;;;;;;;52.05;21.50;;;;;;;;;;5064190;28;20131;-64
2020/12/11 10:14:30;;;;;;;54.72;21.80;;;;;;;;;;5059429;28;20543;-64
2020/12/11 10:16:56;;;;;;;51.67;21.13;;;;;;;;;;5071009;28;20024;-65
2020/12/11 10:19:22;;;;;;;56.70;21.83;;;;;;;;;;5075462;28;20630;-64
2020/12/11 10:21:52;;;;;;;56.88;21.42;;;;;;;;;;5070741;28;20086;-65
2020/12/11 10:24:19;;;;;;;52.08;21.40;;;;;;;;;;5062749;28;20052;-64
2020/12/11 10:26:45;;;;;;;51.97;21.15;;;;;;;;;;5076283;28;20585;-64
2020/12/11 10:29:12;;;;;;;51.05;21.13;;;;;;;;;;5090112;28;20169;-64
2020/12/11 10:31:42;;;;;;;53.83;20.77;;;;;;;;;;5073164;28;20167;-64
2020/12/11 10:34:08;;;;;;;55.85;22.05;;;;;;;;;;5078870;28;20136;-64
2020/12/11 10:36:34;;;;;;;57.85;21.83;;;;;;;;;;5070646;28;20028;-64
2020/12/11 10:39:00;;;;;;;50.20;20.52;;;;;;;;;;5081142;28;20024;-64
2020/12/11 10:41:26;;;;;;;47.75;21.27;;;;;;;;;;5090071;28;20028;-64
2020/12/11 10:43:53;;;;;;;63.13;25.63;;;;;;;;;;5077371;28;20028;-64
2020/12/11 10:46:19;;;;;;;55.85;20.48;;;;;;;;;;5079849;28;20039;-64
2020/12/11 10:48:45;;;;;;;47.83;21.05;;;;;;;;;;5070151;28;20468;-64
2020/12/11 10:51:12;;;;;;;52.33;22.00;;;;;;;;;;5088229;28;20974;-64
2020/12/11 10:53:38;;;;;;;44.47;19.65;;;;;;;;;;5073674;28;20411;-64
2020/12/11 10:56:05;;;;;;;50.15;22.10;;;;;;;;;;5076348;28;20090;-64
2020/12/11 10:58:31;;;;;;;49.00;20.45;;;;;;;;;;5080068;28;20016;-64
2020/12/11 11:00:57;;;;;;;52.13;20.35;;;;;;;;;;5082434;28;20467;-64
2020/12/11 11:03:23;;;;;;;49.70;19.73;;;;;;;;;;5088557;28;20047;-64
2020/12/11 11:05:50;;;;;;;51.40;21.00;;;;;;;;;;5085117;28;20584;-64
2020/12/11 11:08:18;;;;;;;52.10;20.40;;;;;;;;;;5080760;28;20884;-64
2020/12/11 11:10:48;;;;;;;47.50;20.05;;;;;;;;;;5087102;28;20035;-64
2020/12/11 11:13:24;;;;;;;51.25;21.67;;;;;;;;;;5074674;28;20498;-64
2020/12/11 11:15:52;;;;;;;49.85;20.88;;;;;;;;;;5064289;28;20569;-64
2020/12/11 11:18:32;;;;;;;45.20;20.10;;;;;;;;;;5076433;28;20460;-64
2020/12/11 11:26:25;;;;;;;46.72;20.88;;;;;;;;;;5081700;28;20020;-64
2020/12/11 11:28:51;;;;;;;33.58;15.90;;;;;;;;;;5061750;28;20573;-64
2020/12/11 11:31:17;;;;;;;56.63;20.83;;;;;;;;;;5071817;28;20040;-64
2020/12/11 11:33:43;;;;;;;51.53;21.80;;;;;;;;;;5072707;28;20027;-64
2020/12/11 11:36:10;;;;;;;48.90;20.52;;;;;;;;;;5066103;28;20506;-64
2020/12/11 11:38:36;;;;;;;50.45;20.30;;;;;;;;;;5068149;28;20031;-64
2020/12/11 11:41:02;;;;;;;49.75;20.80;;;;;;;;;;5067887;28;20052;-64
2020/12/11 11:46:12;;;;;;;62.47;21.50;;;;;;;;;;5062165;28;20044;-64
2020/12/11 11:48:41;;;;;;;54.40;23.83;;;;;;;;;;5064032;28;20025;-64
2020/12/11 11:51:14;;;;;;;54.85;21.25;;;;;;;;;;5068088;28;20161;-64
2020/12/11 11:53:40;;;;;;;53.13;22.17;;;;;;;;;;5068195;28;20029;-64
2020/12/11 11:56:06;;;;;;;54.13;21.98;;;;;;;;;;5067580;28;20031;-64
2020/12/11 11:58:32;;;;;;;47.25;21.15;;;;;;;;;;5067948;28;20016;-64
2020/12/11 12:00:58;;;;;;;51.70;21.48;;;;;;;;;;5076177;28;20035;-64
2020/12/11 12:03:24;;;;;;;51.28;21.52;;;;;;;;;;5067072;28;20365;-64
2020/12/11 12:05:50;;;;;;;57.50;23.13;;;;;;;;;;5067973;28;20033;-64
2020/12/11 12:08:20;;;;;;;53.53;23.30;;;;;;;;;;5066310;28;20475;-64
2020/12/11 12:10:46;;;;;;;51.50;22.73;;;;;;;;;;5066141;28;20035;-64
2020/12/11 12:13:12;;;;;;;54.70;21.88;;;;;;;;;;5066684;28;20025;-64
2020/12/11 12:15:38;;;;;;;51.17;22.30;;;;;;;;;;5067415;28;20032;-64
2020/12/11 12:18:07;;;;;;;51.83;21.42;;;;;;;;;;5060581;28;20024;-64
2020/12/11 12:20:41;;;;;;;50.75;21.05;;;;;;;;;;5076727;28;20463;-64
2020/12/11 12:28:40;;;;;;;48.78;19.70;;;;;;;;;;5069399;28;20117;-64
2020/12/11 12:31:07;;;;;;;56.78;20.13;;;;;;;;;;5075546;28;20020;-64
2020/12/11 12:38:53;;;;;;;47.45;20.77;;;;;;;;;;5063098;28;20875;-64
2020/12/11 12:44:04;;;;;;;50.88;21.48;;;;;;;;;;5067742;28;20047;-64
2020/12/11 12:46:30;;;;;;;48.45;20.83;;;;;;;;;;5078178;28;20032;-64
2020/12/11 12:48:56;;;;;;;49.70;20.90;;;;;;;;;;5077741;28;20194;-64
2020/12/11 12:51:21;;;;;;;55.50;22.10;;;;;;;;;;5080224;28;20031;-64
2020/12/11 12:53:47;;;;;;;49.25;20.83;;;;;;;;;;5083515;28;20530;-64
2020/12/11 12:59:11;;;;;;;53.00;22.38;;;;;;;;;;5066603;28;20043;-64
2020/12/11 13:01:49;;;;;;;58.13;21.40;;;;;;;;;;5067173;28;20036;-64
2020/12/11 13:04:34;;;;;;;49.35;20.67;;;;;;;;;;5064476;28;20055;-64
2020/12/11 13:07:05;;;;;;;61.50;20.73;;;;;;;;;;5069123;28;20020;-64
2020/12/11 13:09:31;;;;;;;63.78;22.35;;;;;;;;;;5085956;28;20042;-64
2020/12/11 13:11:57;;;;;;;55.10;22.05;;;;;;;;;;5065268;28;20546;-64
2020/12/11 13:14:24;;;;;;;56.88;22.33;;;;;;;;;;5072410;28;20057;-64
2020/12/11 13:16:50;;;;;;;58.90;22.58;;;;;;;;;;5066319;28;20024;-64
2020/12/11 13:19:17;;;;;;;61.22;24.52;;;;;;;;;;5069860;28;20087;-64
2020/12/11 13:22:08;;;;;;;63.20;24.50;;;;;;;;;;5059706;28;20028;-64
2020/12/11 13:30:09;;;;;;;60.03;22.63;;;;;;;;;;5068078;28;20101;-64
2020/12/11 13:32:35;;;;;;;55.25;22.38;;;;;;;;;;5058800;28;20031;-64
2020/12/11 13:35:01;;;;;;;70.47;34.00;;;;;;;;;;5060393;28;20048;-64
2020/12/11 13:37:30;;;;;;;61.38;24.65;;;;;;;;;;5064951;28;20024;-65
2020/12/11 13:39:57;;;;;;;61.63;24.75;;;;;;;;;;5073514;28;20032;-64
2020/12/11 13:42:23;;;;;;;68.00;26.70;;;;;;;;;;5074007;28;20707;-64
2020/12/11 13:44:49;;;;;;;93.53;49.53;;;;;;;;;;5064036;28;20052;-64
2020/12/11 13:47:15;;;;;;;66.15;27.45;;;;;;;;;;5066544;28;20052;-64
2020/12/11 13:49:41;;;;;;;63.17;24.48;;;;;;;;;;5063222;28;20058;-64
2020/12/11 13:52:07;;;;;;;65.07;26.98;;;;;;;;;;5071815;28;20024;-64
2020/12/11 13:54:33;;;;;;;66.05;26.20;;;;;;;;;;5069730;28;20020;-64
2020/12/11 13:56:59;;;;;;;58.75;23.95;;;;;;;;;;5072680;28;20411;-64
2020/12/11 13:59:25;;;;;;;59.78;24.60;;;;;;;;;;5061650;28;20026;-64
2020/12/11 14:01:51;;;;;;;63.17;25.88;;;;;;;;;;5062543;28;20111;-64
2020/12/11 14:04:17;;;;;;;65.78;24.75;;;;;;;;;;5061344;28;20032;-64
2020/12/11 14:06:44;;;;;;;75.70;25.15;;;;;;;;;;5059982;28;20104;-64
2020/12/11 14:09:11;;;;;;;69.60;25.98;;;;;;;;;;5067592;28;20028;-64
2020/12/11 14:11:37;;;;;;;67.15;25.65;;;;;;;;;;5069331;28;20094;-64
2020/12/11 14:14:03;;;;;;;72.43;27.02;;;;;;;;;;5070326;28;20508;-64
2020/12/11 14:16:47;;;;;;;67.80;24.48;;;;;;;;;;5060886;28;20024;-64
2020/12/11 14:22:05;;;;;;;69.88;25.45;;;;;;;;;;5065668;28;20038;-64
2020/12/11 14:24:31;;;;;;;69.03;25.92;;;;;;;;;;5072776;28;20016;-64
2020/12/11 14:26:58;;;;;;;80.15;25.98;;;;;;;;;;5072914;28;20351;-64
2020/12/11 14:29:25;;;;;;;65.15;25.33;;;;;;;;;;5071814;28;20021;-64
2020/12/11 14:31:52;;;;;;;65.22;24.92;;;;;;;;;;5079348;28;20557;-64
2020/12/11 14:34:18;;;;;;;71.70;25.38;;;;;;;;;;5067134;28;20153;-64
2020/12/11 14:36:45;;;;;;;65.90;24.92;;;;;;;;;;5064242;28;20028;-64
2020/12/11 14:39:11;;;;;;;72.97;26.33;;;;;;;;;;5066050;28;20516;-64
2020/12/11 14:41:41;;;;;;;68.93;25.42;;;;;;;;;;5069420;28;20035;-64
2020/12/11 14:44:07;;;;;;;64.47;24.67;;;;;;;;;;5053171;28;20044;-64
2020/12/11 14:46:34;;;;;;;66.35;24.33;;;;;;;;;;5055050;28;20041;-64
2020/12/11 14:49:01;;;;;;;66.72;25.33;;;;;;;;;;5056246;28;20028;-64
2020/12/11 14:51:35;;;;;;;64.53;24.48;;;;;;;;;;5068125;28;20032;-64
2020/12/11 14:54:01;;;;;;;68.65;27.05;;;;;;;;;;5067542;28;20735;-64
2020/12/11 14:56:27;;;;;;;68.10;26.50;;;;;;;;;;5065173;28;20020;-64
2020/12/11 14:58:53;;;;;;;68.32;25.95;;;;;;;;;;5058419;28;20033;-64
2020/12/11 15:01:19;;;;;;;65.70;26.70;;;;;;;;;;5060989;28;20024;-64
2020/12/11 15:03:45;;;;;;;69.65;25.52;;;;;;;;;;5057130;28;20577;-64